createdAt,value
2018-12-06T00:00:50.640Z,73.21
2018-12-06T00:03:19.747Z,72.44
2018-12-06T00:05:48.732Z,73.62
2018-12-06T00:08:19.087Z,72.13
2018-12-06T00:10:48.163Z,72.00
2018-12-06T00:13:17.143Z,71.49
2018-12-06T00:15:46.258Z,71.87
2018-12-06T00:18:15.310Z,72.06
2018-12-06T00:20:44.250Z,71.36
2018-12-06T00:23:13.673Z,69.73
2018-12-06T00:25:43.253Z,70.58
2018-12-06T00:28:12.195Z,72.41
2018-12-06T00:30:42.539Z,72.42
2018-12-06T00:33:11.554Z,72.18
2018-12-06T00:35:40.540Z,73.14
2018-12-06T00:38:10.192Z,71.74
2018-12-06T00:40:39.131Z,71.95
2018-12-06T00:43:09.104Z,71.33
2018-12-06T00:45:38.111Z,71.89
2018-12-06T00:48:07.064Z,69.47
2018-12-06T00:50:36.046Z,68.67
2018-12-06T00:53:05.068Z,68.45
2018-12-06T00:55:34.083Z,67.27
2018-12-06T00:58:03.090Z,66.54
2018-12-06T01:00:32.500Z,66.67
2018-12-06T01:03:01.470Z,65.24
2018-12-06T01:05:30.916Z,64.18
2018-12-06T01:08:00.242Z,64.92
2018-12-06T01:10:29.188Z,66.28
2018-12-06T01:12:58.258Z,66.22
2018-12-06T01:15:27.958Z,68.10
2018-12-06T01:17:56.981Z,66.53
2018-12-06T01:20:25.983Z,66.67
2018-12-06T01:22:54.998Z,67.32
2018-12-06T01:25:23.937Z,67.05
2018-12-06T01:27:53.946Z,67.69
2018-12-06T01:30:22.975Z,66.22
2018-12-06T01:32:51.909Z,66.38
2018-12-06T01:35:20.908Z,67.90
2018-12-06T01:37:49.889Z,67.93
2018-12-06T01:40:18.919Z,68.47
2018-12-06T01:42:47.878Z,66.98
2018-12-06T01:45:17.182Z,66.07
2018-12-06T01:47:46.131Z,67.07
2018-12-06T01:50:15.055Z,66.06
2018-12-06T01:52:44.047Z,66.53
2018-12-06T01:55:12.991Z,66.31
2018-12-06T01:57:41.917Z,66.78
2018-12-06T02:00:11.228Z,66.27
2018-12-06T02:02:40.226Z,66.75
2018-12-06T02:05:09.256Z,63.47
2018-12-06T02:07:38.312Z,63.54
2018-12-06T02:10:07.479Z,65.01
2018-12-06T02:12:37.603Z,63.26
2018-12-06T02:15:06.723Z,63.65
2018-12-06T02:17:36.603Z,65.23
2018-12-06T02:20:06.539Z,64.28
2018-12-06T02:22:36.783Z,64.02
2018-12-06T02:25:05.869Z,65.26
2018-12-06T02:27:34.814Z,65.52
2018-12-06T02:30:04.192Z,64.58
2018-12-06T02:32:33.144Z,64.94
2018-12-06T02:35:02.140Z,64.68
2018-12-06T02:37:31.727Z,65.31
2018-12-06T02:40:00.711Z,64.49
2018-12-06T02:42:29.676Z,65.51
2018-12-06T02:44:58.735Z,65.23
2018-12-06T02:47:27.666Z,63.38
2018-12-06T02:49:56.627Z,63.62
2018-12-06T02:52:25.867Z,63.49
2018-12-06T02:54:55.058Z,64.00
2018-12-06T02:57:24.072Z,63.05
2018-12-06T02:59:53.317Z,63.51
2018-12-06T03:02:23.286Z,61.06
2018-12-06T03:04:52.259Z,61.72
2018-12-06T03:07:21.302Z,62.56
2018-12-06T03:09:50.238Z,60.15
2018-12-06T03:12:19.207Z,61.81
2018-12-06T03:14:48.316Z,60.91
2018-12-06T03:17:17.325Z,60.81
2018-12-06T03:19:47.809Z,62.41
2018-12-06T03:22:16.396Z,64.66
2018-12-06T03:24:45.341Z,64.87
2018-12-06T03:27:14.321Z,65.18
2018-12-06T03:29:43.370Z,62.42
2018-12-06T03:32:12.414Z,60.56
2018-12-06T03:34:41.467Z,62.03
2018-12-06T03:37:10.729Z,62.43
2018-12-06T03:39:39.708Z,61.71
2018-12-06T03:42:08.711Z,62.64
2018-12-06T03:44:37.743Z,62.25
2018-12-06T03:47:06.710Z,62.79
2018-12-06T03:49:35.677Z,63.56
2018-12-06T03:52:05.328Z,64.43
2018-12-06T03:54:34.268Z,65.52
2018-12-06T03:57:03.233Z,64.13
2018-12-06T03:59:32.960Z,65.70
2018-12-06T04:02:01.957Z,64.59
2018-12-06T04:04:30.928Z,65.64
2018-12-06T04:06:59.934Z,65.92
2018-12-06T04:09:28.883Z,67.62
2018-12-06T04:11:57.848Z,69.50
2018-12-06T04:14:26.867Z,69.40
2018-12-06T04:16:55.871Z,70.90
2018-12-06T04:19:24.848Z,69.71
2018-12-06T04:21:54.118Z,69.48
2018-12-06T04:24:23.189Z,70.78
2018-12-06T04:26:52.198Z,71.80
2018-12-06T04:29:21.482Z,71.08
2018-12-06T04:31:50.509Z,72.57
2018-12-06T04:34:19.576Z,70.85
2018-12-06T04:36:48.615Z,72.47
2018-12-06T04:39:17.605Z,73.00
2018-12-06T04:41:47.106Z,73.77
2018-12-06T04:44:16.432Z,72.20
2018-12-06T04:46:45.587Z,69.17
2018-12-06T04:49:14.539Z,69.86
2018-12-06T04:51:43.603Z,71.52
2018-12-06T04:54:12.645Z,71.01
2018-12-06T04:56:42.030Z,70.05
2018-12-06T04:59:11.610Z,70.05
2018-12-06T05:01:40.707Z,70.90
2018-12-06T05:04:09.904Z,70.52
2018-12-06T05:06:39.555Z,70.43
2018-12-06T05:09:08.959Z,68.43
2018-12-06T05:11:38.009Z,69.88
2018-12-06T05:14:07.254Z,70.76
2018-12-06T05:16:36.475Z,71.65
2018-12-06T05:19:05.540Z,71.69
2018-12-06T05:21:34.766Z,72.37
2018-12-06T05:24:03.856Z,70.87
2018-12-06T05:26:33.298Z,68.16
2018-12-06T05:29:02.438Z,69.87
2018-12-06T05:31:31.501Z,70.75
2018-12-06T05:34:00.607Z,73.41
2018-12-06T05:36:29.657Z,75.36
2018-12-06T05:38:58.770Z,75.60
2018-12-06T05:41:27.806Z,74.64
2018-12-06T05:43:57.033Z,74.08
2018-12-06T05:46:26.654Z,74.98
2018-12-06T05:48:55.799Z,75.71
2018-12-06T05:51:24.901Z,74.77
2018-12-06T05:53:54.011Z,76.21
2018-12-06T05:56:23.035Z,75.44
2018-12-06T05:58:52.224Z,75.84
2018-12-06T06:01:21.351Z,78.27
2018-12-06T06:03:50.708Z,79.04
2018-12-06T06:06:20.166Z,75.22
2018-12-06T06:08:49.242Z,75.04
2018-12-06T06:11:18.240Z,74.50
2018-12-06T06:13:47.367Z,75.41
2018-12-06T06:16:16.525Z,75.62
2018-12-06T06:18:45.612Z,74.33
2018-12-06T06:21:14.996Z,76.76
2018-12-06T06:23:44.148Z,74.89
2018-12-06T06:26:13.300Z,75.28
2018-12-06T06:28:42.406Z,76.85
2018-12-06T06:31:12.488Z,75.88
2018-12-06T06:33:41.547Z,76.04
2018-12-06T06:36:10.760Z,77.59
2018-12-06T06:38:39.806Z,77.35
2018-12-06T06:41:08.869Z,77.10
2018-12-06T06:43:38.003Z,79.10
2018-12-06T06:46:07.046Z,78.61
2018-12-06T06:48:36.122Z,79.33
2018-12-06T06:51:05.180Z,78.64
2018-12-06T06:53:34.152Z,76.68
2018-12-06T06:56:03.187Z,75.83
2018-12-06T06:58:32.601Z,73.67
2018-12-06T07:01:01.673Z,71.95
2018-12-06T07:03:30.739Z,74.99
2018-12-06T07:05:59.856Z,75.29
2018-12-06T07:08:28.958Z,74.40
2018-12-06T07:10:58.003Z,76.44
2018-12-06T07:13:27.121Z,77.51
2018-12-06T07:15:56.227Z,78.94
2018-12-06T07:18:25.288Z,81.11
2018-12-06T07:20:54.432Z,76.93
2018-12-06T07:23:23.388Z,78.74
2018-12-06T07:25:52.546Z,74.19
2018-12-06T07:28:21.622Z,75.79
2018-12-06T07:30:50.817Z,74.62
2018-12-06T07:33:19.914Z,73.14
2018-12-06T07:35:49.234Z,73.90
2018-12-06T07:38:18.297Z,74.57
2018-12-06T07:40:47.483Z,76.07
2018-12-06T07:43:16.649Z,77.94
2018-12-06T07:45:45.775Z,76.41
2018-12-06T07:48:14.901Z,76.02
2018-12-06T07:50:44.051Z,100.00
2018-12-06T07:53:13.050Z,72.27
2018-12-06T07:55:42.128Z,72.86
2018-12-06T07:58:11.131Z,74.74
2018-12-06T08:00:40.187Z,74.06
2018-12-06T08:03:09.334Z,70.00
2018-12-06T08:05:38.458Z,71.35
2018-12-06T08:08:08.269Z,71.69
2018-12-06T08:10:37.323Z,70.52
2018-12-06T08:13:06.837Z,73.60
2018-12-06T08:15:35.925Z,71.94
2018-12-06T08:18:05.070Z,68.58
2018-12-06T08:20:34.159Z,63.53
2018-12-06T08:23:03.240Z,68.44
2018-12-06T08:25:32.576Z,66.33
2018-12-06T08:28:01.676Z,64.71
2018-12-06T08:30:30.804Z,69.27
2018-12-06T08:32:59.883Z,71.16
2018-12-06T08:35:28.975Z,68.92
2018-12-06T08:37:58.029Z,67.48
2018-12-06T08:40:27.025Z,66.49
2018-12-06T08:42:56.167Z,67.57
2018-12-06T08:45:25.527Z,63.25
2018-12-06T08:47:54.543Z,60.88
2018-12-06T09:39:32.465Z,71.73
2018-12-06T09:45:07.319Z,70.31
2018-12-06T09:47:38.241Z,65.77
2018-12-06T09:50:07.864Z,64.68
2018-12-06T09:52:39.219Z,64.77
2018-12-06T09:55:14.295Z,61.13
2018-12-06T09:57:43.336Z,59.20
2018-12-06T10:00:15.494Z,62.17
2018-12-06T10:02:45.042Z,63.60
2018-12-06T10:05:13.994Z,64.41
2018-12-06T10:07:42.971Z,65.47
2018-12-06T10:10:13.058Z,59.22
2018-12-06T10:12:48.619Z,90.93
2018-12-06T10:15:21.144Z,64.27
2018-12-06T10:17:50.468Z,60.59
2018-12-06T10:20:25.253Z,63.13
2018-12-06T10:22:57.549Z,61.84
2018-12-06T10:25:27.257Z,59.97
2018-12-06T10:27:57.310Z,60.93
2018-12-06T10:30:26.689Z,58.01
2018-12-06T10:32:56.513Z,60.34
2018-12-06T10:35:26.401Z,58.38
2018-12-06T10:37:56.417Z,58.14
2018-12-06T10:40:25.609Z,59.86
2018-12-06T10:42:55.101Z,60.40
2018-12-06T10:45:24.244Z,56.69
2018-12-06T10:47:53.376Z,55.91
2018-12-06T10:50:22.444Z,56.92
2018-12-06T10:52:51.445Z,54.20
2018-12-06T10:55:20.483Z,53.99
2018-12-06T10:57:49.685Z,55.76
2018-12-06T11:01:24.312Z,55.46
2018-12-06T11:03:58.350Z,53.72
2018-12-06T11:06:29.136Z,58.84
2018-12-06T11:08:58.130Z,55.57
2018-12-06T11:11:27.164Z,54.32
2018-12-06T11:13:56.455Z,65.64
2018-12-06T11:16:25.445Z,57.71
2018-12-06T11:18:54.615Z,55.03
2018-12-06T11:21:25.595Z,53.81
2018-12-06T11:23:56.464Z,55.61
2018-12-06T11:26:25.708Z,54.51
2018-12-06T11:28:54.741Z,58.91
2018-12-06T11:31:23.866Z,61.84
2018-12-06T11:33:52.884Z,58.34
2018-12-06T11:36:21.994Z,58.63
2018-12-06T11:38:51.134Z,57.06
2018-12-06T11:41:20.231Z,61.18
2018-12-06T11:43:49.479Z,60.76
2018-12-06T11:46:18.624Z,64.86
2018-12-06T11:48:47.791Z,62.15
2018-12-06T11:51:17.477Z,64.24
2018-12-06T11:53:47.243Z,66.33
2018-12-06T11:56:16.520Z,70.10
2018-12-06T11:58:45.715Z,71.38
2018-12-06T12:01:15.106Z,73.74
2018-12-06T12:03:44.245Z,67.64
2018-12-06T12:06:13.451Z,73.18
2018-12-06T12:08:42.902Z,74.94
2018-12-06T12:11:12.094Z,72.91
2018-12-06T12:13:41.285Z,76.71
2018-12-06T12:16:10.410Z,77.04
2018-12-06T12:18:39.689Z,72.86
2018-12-06T12:21:08.901Z,70.23
2018-12-06T12:23:38.169Z,100.00
2018-12-06T12:26:07.499Z,76.58
2018-12-06T12:28:36.688Z,77.20
2018-12-06T12:31:06.169Z,63.81
2018-12-06T12:33:35.286Z,64.56
2018-12-06T12:36:04.487Z,64.65
2018-12-06T12:38:33.716Z,62.80
2018-12-06T12:41:02.903Z,61.67
2018-12-06T12:43:32.028Z,71.77
2018-12-06T12:46:01.080Z,74.49
2018-12-06T12:48:30.099Z,69.70
2018-12-06T12:50:59.164Z,71.20
2018-12-06T12:53:28.273Z,70.39
2018-12-06T12:55:57.355Z,71.01
2018-12-06T12:58:26.366Z,71.78
2018-12-06T13:00:55.466Z,78.77
2018-12-06T13:03:24.492Z,82.53
2018-12-06T13:05:53.533Z,85.74
2018-12-06T13:08:22.864Z,86.51
2018-12-06T13:10:51.925Z,87.31
2018-12-06T13:13:20.979Z,93.03
2018-12-06T13:15:49.988Z,91.25
2018-12-06T13:18:19.203Z,92.66
2018-12-06T13:20:48.265Z,95.17
2018-12-06T13:23:17.508Z,92.41
2018-12-06T13:25:46.505Z,92.62
2018-12-06T13:28:15.527Z,91.94
2018-12-06T13:30:44.594Z,91.79
2018-12-06T13:33:13.814Z,93.91
2018-12-06T13:35:42.932Z,94.41
2018-12-06T13:38:12.026Z,94.78
2018-12-06T13:40:41.092Z,95.59
2018-12-06T13:43:10.172Z,95.76
2018-12-06T13:45:39.246Z,95.95
2018-12-06T13:48:08.382Z,93.43
2018-12-06T13:50:37.495Z,92.48
2018-12-06T13:53:06.613Z,87.95
2018-12-06T13:55:35.751Z,80.33
2018-12-06T13:58:04.908Z,80.71
2018-12-06T14:00:34.002Z,80.63
2018-12-06T14:03:03.055Z,80.18
2018-12-06T14:05:32.250Z,78.20
2018-12-06T14:08:01.343Z,74.68
2018-12-06T14:10:30.418Z,78.10
2018-12-06T14:12:59.515Z,75.95
2018-12-06T14:15:28.531Z,76.96
2018-12-06T14:17:57.556Z,76.67
2018-12-06T14:20:26.808Z,76.48
2018-12-06T14:22:56.162Z,77.01
2018-12-06T14:25:25.236Z,80.09
2018-12-06T14:27:54.447Z,88.68
2018-12-06T14:30:24.188Z,88.49
2018-12-06T14:32:53.252Z,93.08
2018-12-06T14:35:22.506Z,91.18
2018-12-06T14:37:51.585Z,88.82
2018-12-06T14:40:20.799Z,91.73
2018-12-06T14:42:50.175Z,99.62
2018-12-06T14:45:19.472Z,100.00
2018-12-06T14:47:48.479Z,100.00
2018-12-06T14:50:22.656Z,100.00
2018-12-06T14:52:51.781Z,100.00
2018-12-06T14:55:20.951Z,100.00
2018-12-06T14:57:50.066Z,100.00
2018-12-06T15:00:19.230Z,100.00
2018-12-06T15:02:48.191Z,100.00
2018-12-06T15:05:17.560Z,100.00
2018-12-06T15:07:46.619Z,100.00
2018-12-06T15:10:15.769Z,100.00
2018-12-06T15:12:44.986Z,100.00
2018-12-06T15:15:14.234Z,100.00
2018-12-06T15:17:43.416Z,100.00
2018-12-06T15:20:12.719Z,100.00
2018-12-06T15:22:41.801Z,100.00
2018-12-06T15:25:11.027Z,100.00
2018-12-06T15:27:40.391Z,98.75
2018-12-06T15:30:10.924Z,97.98
2018-12-06T15:32:39.932Z,98.75
2018-12-06T15:35:09.147Z,99.53
2018-12-06T15:37:38.217Z,97.30
2018-12-06T15:40:07.668Z,98.20
2018-12-06T15:42:36.778Z,100.00
2018-12-06T15:45:06.347Z,99.29
2018-12-06T15:47:35.459Z,100.00
2018-12-06T15:50:04.872Z,96.67
2018-12-06T15:52:34.140Z,96.88
2018-12-06T15:55:03.216Z,98.26
2018-12-06T15:57:32.443Z,95.74
2018-12-06T16:00:01.517Z,97.09
2018-12-06T16:02:30.583Z,99.37
2018-12-06T16:04:59.648Z,99.58
2018-12-06T16:07:28.742Z,100.00
2018-12-06T16:09:57.763Z,100.00
2018-12-06T16:12:27.024Z,99.39
2018-12-06T16:14:56.144Z,100.00
2018-12-06T16:17:25.154Z,99.35
2018-12-06T16:19:54.319Z,98.22
2018-12-06T16:22:23.395Z,96.66
2018-12-06T16:24:52.551Z,96.40
2018-12-06T16:27:21.700Z,97.59
2018-12-06T16:29:51.613Z,91.24
2018-12-06T16:32:20.200Z,90.35
2018-12-06T16:34:49.572Z,88.64
2018-12-06T16:37:18.788Z,100.00
2018-12-06T16:39:47.941Z,91.02
2018-12-06T16:42:17.355Z,88.32
2018-12-06T16:44:46.581Z,87.32
2018-12-06T16:47:15.918Z,88.41
2018-12-06T16:49:45.055Z,86.40
2018-12-06T16:52:14.272Z,92.65
2018-12-06T16:54:43.440Z,90.77
2018-12-06T16:57:13.157Z,91.93
2018-12-06T16:59:42.251Z,92.07
2018-12-06T17:02:11.437Z,88.51
2018-12-06T17:04:40.649Z,86.95
2018-12-06T17:07:09.748Z,86.93
2018-12-06T17:09:38.968Z,89.40
2018-12-06T17:12:08.157Z,89.57
2018-12-06T17:14:37.263Z,84.95
2018-12-06T17:17:06.443Z,84.06
2018-12-06T17:19:35.563Z,87.21
2018-12-06T17:22:04.824Z,87.73
2018-12-06T17:24:34.025Z,91.80
2018-12-06T17:27:03.127Z,97.01
2018-12-06T17:29:32.213Z,100.00
2018-12-06T17:32:01.376Z,100.00
2018-12-06T17:34:30.621Z,99.91
2018-12-06T17:36:59.766Z,98.56
2018-12-06T17:39:28.870Z,84.55
2018-12-06T17:41:58.509Z,82.84
2018-12-06T17:44:27.718Z,78.93
2018-12-06T17:46:57.008Z,75.28
2018-12-06T17:49:26.168Z,78.70
2018-12-06T17:51:55.241Z,84.93
2018-12-06T17:54:24.478Z,83.23
2018-12-06T17:56:53.922Z,86.27
2018-12-06T17:59:22.981Z,87.85
2018-12-06T18:01:52.137Z,88.06
2018-12-06T18:04:21.230Z,92.33
2018-12-06T18:06:50.397Z,95.12
2018-12-06T18:09:19.506Z,95.33
2018-12-06T18:11:48.612Z,96.23
2018-12-06T18:14:17.696Z,100.00
2018-12-06T18:16:46.704Z,92.30
2018-12-06T18:19:15.869Z,92.72
2018-12-06T18:21:45.247Z,89.25
2018-12-06T18:24:18.552Z,90.14
2018-12-06T18:26:44.693Z,91.69
2018-12-06T18:29:14.212Z,93.15
2018-12-06T18:31:44.205Z,95.11
2018-12-06T18:34:19.890Z,97.80
2018-12-06T18:36:49.371Z,97.33
2018-12-06T18:39:18.927Z,96.07
2018-12-06T18:41:48.329Z,99.15
2018-12-06T18:44:17.549Z,97.42
2018-12-06T18:46:46.678Z,100.00
2018-12-06T18:49:16.230Z,99.33
2018-12-06T18:51:45.903Z,100.00
2018-12-06T18:54:15.558Z,100.00
2018-12-06T18:56:45.202Z,100.00
2018-12-06T18:59:15.039Z,100.00
2018-12-06T19:01:44.402Z,100.00
2018-12-06T19:04:13.816Z,100.00
2018-12-06T19:06:45.197Z,100.00
2018-12-06T19:09:14.437Z,100.00
2018-12-06T19:11:43.598Z,99.67
2018-12-06T19:14:12.663Z,100.00
2018-12-06T19:16:42.119Z,100.00
2018-12-06T19:19:11.308Z,99.91
2018-12-06T19:21:40.451Z,100.00
2018-12-06T19:24:09.681Z,99.17
2018-12-06T19:26:38.803Z,98.26
2018-12-06T19:29:07.978Z,95.92
2018-12-06T19:31:37.118Z,97.39
2018-12-06T19:34:06.197Z,96.73
2018-12-06T19:36:35.227Z,97.04
2018-12-06T19:39:05.105Z,99.99
2018-12-06T19:41:34.135Z,98.98
2018-12-06T19:44:03.344Z,98.66
2018-12-06T19:46:32.460Z,98.02
2018-12-06T19:49:01.563Z,99.77
2018-12-06T19:51:30.786Z,100.00
2018-12-06T19:53:59.926Z,100.00
2018-12-06T19:56:29.278Z,94.97
2018-12-06T19:58:58.472Z,95.92
2018-12-06T20:01:27.753Z,99.90
2018-12-06T20:03:56.848Z,90.68
2018-12-06T20:06:25.992Z,93.09
2018-12-06T20:08:55.124Z,97.97
2018-12-06T20:11:24.291Z,100.00
2018-12-06T20:13:53.460Z,100.00
2018-12-06T20:16:22.702Z,100.00
2018-12-06T20:18:51.989Z,100.00
2018-12-06T20:21:23.825Z,100.00
2018-12-06T20:23:53.994Z,100.00
2018-12-06T20:26:23.292Z,100.00
2018-12-06T20:28:52.832Z,100.00
2018-12-06T20:31:22.566Z,100.00
2018-12-06T20:33:51.985Z,100.00
2018-12-06T20:36:21.111Z,100.00
2018-12-06T20:38:50.233Z,100.00
2018-12-06T20:41:19.362Z,100.00
2018-12-06T20:43:48.387Z,100.00
2018-12-06T20:46:17.484Z,100.00
2018-12-06T20:48:46.579Z,100.00
2018-12-06T20:51:15.720Z,100.00
2018-12-06T20:53:44.815Z,100.00
2018-12-06T20:56:13.813Z,100.00
2018-12-06T20:58:42.927Z,100.00
2018-12-06T21:01:11.977Z,100.00
2018-12-06T21:03:41.062Z,100.00
2018-12-06T21:06:10.270Z,100.00
2018-12-06T21:08:39.288Z,100.00
2018-12-06T21:11:08.386Z,100.00
2018-12-06T21:13:38.673Z,100.00
2018-12-06T21:16:07.889Z,100.00
2018-12-06T21:18:36.931Z,100.00
2018-12-06T21:21:06.308Z,100.00
2018-12-06T21:23:35.497Z,100.00
2018-12-06T21:26:04.647Z,100.00
2018-12-06T21:28:34.016Z,100.00
2018-12-06T21:31:03.055Z,100.00
2018-12-06T21:33:32.156Z,100.00
2018-12-06T21:36:01.421Z,100.00
2018-12-06T21:38:30.704Z,100.00
2018-12-06T21:41:00.132Z,100.00
2018-12-06T21:43:29.323Z,100.00
2018-12-06T21:45:58.551Z,100.00
2018-12-06T21:48:27.661Z,100.00
2018-12-06T21:50:57.055Z,100.00
2018-12-06T21:53:26.047Z,100.00
2018-12-06T21:55:55.082Z,100.00
2018-12-06T21:58:24.190Z,100.00
2018-12-06T22:00:53.188Z,100.00
2018-12-06T22:03:22.187Z,100.00
2018-12-06T22:05:51.231Z,100.00
2018-12-06T22:08:20.259Z,100.00
2018-12-06T22:10:49.271Z,100.00
2018-12-06T22:13:18.418Z,100.00
2018-12-06T22:15:47.660Z,100.00
2018-12-06T22:18:16.707Z,100.00
2018-12-06T22:20:45.797Z,100.00
2018-12-06T22:23:14.876Z,100.00
2018-12-06T22:25:43.869Z,100.00
2018-12-06T22:28:12.953Z,100.00
2018-12-06T22:30:47.410Z,100.00
2018-12-06T22:33:17.108Z,100.00
2018-12-06T22:35:47.092Z,100.00
2018-12-06T22:38:17.051Z,100.00
2018-12-06T22:40:46.248Z,100.00
2018-12-06T22:43:15.450Z,100.00
2018-12-06T22:46:03.100Z,100.00
2018-12-06T22:48:32.119Z,100.00
2018-12-06T22:51:01.331Z,100.00
2018-12-06T22:53:30.537Z,100.00
2018-12-06T22:55:59.652Z,100.00
2018-12-06T22:58:28.935Z,100.00
2018-12-06T23:00:59.648Z,100.00
2018-12-06T23:03:28.957Z,100.00
2018-12-06T23:05:58.169Z,100.00
2018-12-06T23:08:27.284Z,100.00
2018-12-06T23:10:56.362Z,100.00
2018-12-06T23:13:25.504Z,100.00
2018-12-06T23:15:54.606Z,100.00
2018-12-06T23:18:23.646Z,100.00
2018-12-06T23:20:52.834Z,100.00
2018-12-06T23:23:22.026Z,100.00
2018-12-06T23:25:51.043Z,100.00
2018-12-06T23:28:20.144Z,100.00
2018-12-06T23:30:49.366Z,100.00
2018-12-06T23:33:18.509Z,100.00
2018-12-06T23:35:47.590Z,100.00
2018-12-06T23:38:16.679Z,100.00
2018-12-06T23:40:45.836Z,100.00
2018-12-06T23:43:17.437Z,100.00
2018-12-06T23:45:46.674Z,100.00
2018-12-06T23:48:15.863Z,100.00
2018-12-06T23:50:44.982Z,100.00
2018-12-06T23:53:14.179Z,100.00
2018-12-06T23:55:43.345Z,100.00
2018-12-06T23:58:12.532Z,100.00
